sensor_id;sensor_type;location;lat;lon;timestamp;P1;durP1;ratioP1;P2;durP2;ratioP2
43606;SDS011;29197;44.788;10.366;2022-09-02T00:00:45;8.80;;;4.57;;
43606;SDS011;29197;44.788;10.366;2022-09-02T00:03:36;5.18;;;3.38;;
43606;SDS011;29197;44.788;10.366;2022-09-02T00:06:25;6.68;;;3.10;;
43606;SDS011;29197;44.788;10.366;2022-09-02T00:09:18;6.32;;;3.65;;
43606;SDS011;29197;44.788;10.366;2022-09-02T00:12:09;5.07;;;3.58;;
43606;SDS011;29197;44.788;10.366;2022-09-02T00:14:58;6.10;;;3.50;;
43606;SDS011;29197;44.788;10.366;2022-09-02T00:17:47;8.60;;;3.80;;
43606;SDS011;29197;44.788;10.366;2022-09-02T00:20:37;4.85;;;2.97;;
43606;SDS011;29197;44.788;10.366;2022-09-02T00:23:26;5.60;;;3.40;;
43606;SDS011;29197;44.788;10.366;2022-09-02T00:26:17;9.93;;;4.00;;
43606;SDS011;29197;44.788;10.366;2022-09-02T00:29:06;5.82;;;3.90;;
43606;SDS011;29197;44.788;10.366;2022-09-02T00:31:55;6.32;;;3.35;;
43606;SDS011;29197;44.788;10.366;2022-09-02T00:34:45;5.55;;;3.30;;
43606;SDS011;29197;44.788;10.366;2022-09-02T00:37:35;6.22;;;3.97;;
43606;SDS011;29197;44.788;10.366;2022-09-02T00:40:24;9.02;;;4.53;;
43606;SDS011;29197;44.788;10.366;2022-09-02T00:43:22;5.15;;;3.65;;
43606;SDS011;29197;44.788;10.366;2022-09-02T00:46:14;6.35;;;3.47;;
43606;SDS011;29197;44.788;10.366;2022-09-02T00:49:08;5.90;;;3.30;;
43606;SDS011;29197;44.788;10.366;2022-09-02T00:52:01;6.50;;;3.45;;
43606;SDS011;29197;44.788;10.366;2022-09-02T00:54:54;4.82;;;3.50;;
43606;SDS011;29197;44.788;10.366;2022-09-02T00:57:46;8.15;;;3.33;;
43606;SDS011;29197;44.788;10.366;2022-09-02T01:00:43;5.55;;;2.90;;
43606;SDS011;29197;44.788;10.366;2022-09-02T01:03:34;4.60;;;2.50;;
43606;SDS011;29197;44.788;10.366;2022-09-02T01:06:24;7.80;;;3.00;;
43606;SDS011;29197;44.788;10.366;2022-09-02T01:09:19;4.00;;;2.75;;
43606;SDS011;29197;44.788;10.366;2022-09-02T01:12:09;5.32;;;3.10;;
43606;SDS011;29197;44.788;10.366;2022-09-02T01:14:59;5.47;;;3.13;;
43606;SDS011;29197;44.788;10.366;2022-09-02T01:17:51;5.63;;;2.70;;
43606;SDS011;29197;44.788;10.366;2022-09-02T01:20:41;3.83;;;2.70;;
43606;SDS011;29197;44.788;10.366;2022-09-02T01:23:32;6.97;;;2.47;;
43606;SDS011;29197;44.788;10.366;2022-09-02T01:26:23;3.38;;;2.53;;
43606;SDS011;29197;44.788;10.366;2022-09-02T01:29:12;8.48;;;2.75;;
43606;SDS011;29197;44.788;10.366;2022-09-02T01:32:02;5.55;;;2.47;;
43606;SDS011;29197;44.788;10.366;2022-09-02T01:34:52;4.25;;;2.22;;
43606;SDS011;29197;44.788;10.366;2022-09-02T01:37:42;4.10;;;2.20;;
43606;SDS011;29197;44.788;10.366;2022-09-02T01:40:43;3.75;;;2.35;;
43606;SDS011;29197;44.788;10.366;2022-09-02T01:43:32;7.32;;;2.22;;
43606;SDS011;29197;44.788;10.366;2022-09-02T01:46:21;4.32;;;2.67;;
43606;SDS011;29197;44.788;10.366;2022-09-02T01:49:11;5.88;;;2.45;;
43606;SDS011;29197;44.788;10.366;2022-09-02T01:52:01;4.32;;;2.72;;
43606;SDS011;29197;44.788;10.366;2022-09-02T01:54:51;7.75;;;2.60;;
43606;SDS011;29197;44.788;10.366;2022-09-02T01:57:42;4.60;;;2.45;;
43606;SDS011;29197;44.788;10.366;2022-09-02T02:00:33;4.13;;;2.30;;
43606;SDS011;29197;44.788;10.366;2022-09-02T02:03:22;3.08;;;2.30;;
43606;SDS011;29197;44.788;10.366;2022-09-02T02:06:14;4.60;;;2.42;;
43606;SDS011;29197;44.788;10.366;2022-09-02T02:09:04;2.22;;;2.03;;
43606;SDS011;29197;44.788;10.366;2022-09-02T02:11:53;4.13;;;2.33;;
43606;SDS011;29197;44.788;10.366;2022-09-02T02:14:44;4.45;;;2.10;;
43606;SDS011;29197;44.788;10.366;2022-09-02T02:17:33;5.00;;;2.28;;
43606;SDS011;29197;44.788;10.366;2022-09-02T02:20:22;4.00;;;2.22;;
43606;SDS011;29197;44.788;10.366;2022-09-02T02:23:12;5.78;;;3.00;;
43606;SDS011;29197;44.788;10.366;2022-09-02T02:26:02;4.32;;;2.28;;
43606;SDS011;29197;44.788;10.366;2022-09-02T02:28:51;8.00;;;2.63;;
43606;SDS011;29197;44.788;10.366;2022-09-02T02:31:42;3.17;;;2.50;;
43606;SDS011;29197;44.788;10.366;2022-09-02T02:34:31;5.68;;;2.63;;
43606;SDS011;29197;44.788;10.366;2022-09-02T02:37:21;5.78;;;2.60;;
43606;SDS011;29197;44.788;10.366;2022-09-02T02:40:11;4.40;;;2.30;;
43606;SDS011;29197;44.788;10.366;2022-09-02T02:43:00;6.53;;;2.28;;
43606;SDS011;29197;44.788;10.366;2022-09-02T02:45:49;3.05;;;2.38;;
43606;SDS011;29197;44.788;10.366;2022-09-02T02:48:41;3.15;;;2.33;;
43606;SDS011;29197;44.788;10.366;2022-09-02T02:51:30;4.57;;;2.42;;
43606;SDS011;29197;44.788;10.366;2022-09-02T02:54:20;3.80;;;2.22;;
43606;SDS011;29197;44.788;10.366;2022-09-02T02:57:20;2.25;;;2.05;;
43606;SDS011;29197;44.788;10.366;2022-09-02T03:00:10;4.45;;;2.60;;
43606;SDS011;29197;44.788;10.366;2022-09-02T03:03:01;2.20;;;2.00;;
43606;SDS011;29197;44.788;10.366;2022-09-02T03:05:54;4.57;;;2.60;;
43606;SDS011;29197;44.788;10.366;2022-09-02T03:08:43;4.40;;;2.55;;
43606;SDS011;29197;44.788;10.366;2022-09-02T03:11:36;2.88;;;1.92;;
43606;SDS011;29197;44.788;10.366;2022-09-02T03:14:26;3.13;;;1.95;;
43606;SDS011;29197;44.788;10.366;2022-09-02T03:17:17;3.17;;;2.30;;
43606;SDS011;29197;44.788;10.366;2022-09-02T03:20:06;4.68;;;2.40;;
43606;SDS011;29197;44.788;10.366;2022-09-02T03:22:58;5.15;;;2.70;;
43606;SDS011;29197;44.788;10.366;2022-09-02T03:25:49;3.30;;;2.63;;
43606;SDS011;29197;44.788;10.366;2022-09-02T03:28:39;4.25;;;2.20;;
43606;SDS011;29197;44.788;10.366;2022-09-02T03:31:29;4.60;;;2.38;;
43606;SDS011;29197;44.788;10.366;2022-09-02T03:34:18;5.25;;;2.97;;
43606;SDS011;29197;44.788;10.366;2022-09-02T03:37:07;5.07;;;3.10;;
43606;SDS011;29197;44.788;10.366;2022-09-02T03:39:58;3.70;;;2.70;;
43606;SDS011;29197;44.788;10.366;2022-09-02T03:42:49;4.55;;;2.90;;
43606;SDS011;29197;44.788;10.366;2022-09-02T03:45:45;3.25;;;2.47;;
43606;SDS011;29197;44.788;10.366;2022-09-02T03:48:34;5.20;;;3.08;;
43606;SDS011;29197;44.788;10.366;2022-09-02T03:51:24;6.00;;;2.78;;
43606;SDS011;29197;44.788;10.366;2022-09-02T03:54:13;5.15;;;3.65;;
43606;SDS011;29197;44.788;10.366;2022-09-02T03:57:04;2.95;;;2.65;;
43606;SDS011;29197;44.788;10.366;2022-09-02T03:59:54;4.15;;;2.88;;
43606;SDS011;29197;44.788;10.366;2022-09-02T04:02:43;2.65;;;2.38;;
43606;SDS011;29197;44.788;10.366;2022-09-02T04:05:35;5.13;;;2.70;;
43606;SDS011;29197;44.788;10.366;2022-09-02T04:08:25;5.75;;;2.25;;
43606;SDS011;29197;44.788;10.366;2022-09-02T04:11:15;4.00;;;2.58;;
43606;SDS011;29197;44.788;10.366;2022-09-02T04:14:07;5.47;;;2.72;;
43606;SDS011;29197;44.788;10.366;2022-09-02T04:16:57;6.07;;;2.78;;
43606;SDS011;29197;44.788;10.366;2022-09-02T04:19:46;4.20;;;2.67;;
43606;SDS011;29197;44.788;10.366;2022-09-02T04:22:36;5.90;;;3.60;;
43606;SDS011;29197;44.788;10.366;2022-09-02T04:25:25;7.28;;;3.53;;
43606;SDS011;29197;44.788;10.366;2022-09-02T04:28:14;3.63;;;2.60;;
43606;SDS011;29197;44.788;10.366;2022-09-02T04:31:06;5.07;;;2.80;;
43606;SDS011;29197;44.788;10.366;2022-09-02T04:33:57;4.68;;;2.67;;
43606;SDS011;29197;44.788;10.366;2022-09-02T04:36:47;3.67;;;2.72;;
43606;SDS011;29197;44.788;10.366;2022-09-02T04:39:36;3.22;;;2.90;;
43606;SDS011;29197;44.788;10.366;2022-09-02T04:42:26;5.43;;;3.03;;
43606;SDS011;29197;44.788;10.366;2022-09-02T04:45:15;5.65;;;3.83;;
43606;SDS011;29197;44.788;10.366;2022-09-02T04:48:05;6.47;;;3.28;;
43606;SDS011;29197;44.788;10.366;2022-09-02T04:50:54;6.03;;;3.50;;
43606;SDS011;29197;44.788;10.366;2022-09-02T04:53:44;7.38;;;4.20;;
43606;SDS011;29197;44.788;10.366;2022-09-02T04:56:33;7.50;;;4.32;;
43606;SDS011;29197;44.788;10.366;2022-09-02T04:59:24;5.45;;;4.00;;
43606;SDS011;29197;44.788;10.366;2022-09-02T05:02:13;7.25;;;4.63;;
43606;SDS011;29197;44.788;10.366;2022-09-02T05:05:04;5.97;;;3.67;;
43606;SDS011;29197;44.788;10.366;2022-09-02T05:07:55;6.93;;;3.95;;
43606;SDS011;29197;44.788;10.366;2022-09-02T05:10:44;6.22;;;4.10;;
43606;SDS011;29197;44.788;10.366;2022-09-02T05:13:36;7.15;;;4.90;;
43606;SDS011;29197;44.788;10.366;2022-09-02T05:16:27;9.75;;;5.10;;
43606;SDS011;29197;44.788;10.366;2022-09-02T05:19:17;6.22;;;4.82;;
43606;SDS011;29197;44.788;10.366;2022-09-02T05:22:09;6.10;;;3.65;;
43606;SDS011;29197;44.788;10.366;2022-09-02T05:24:58;6.78;;;4.93;;
43606;SDS011;29197;44.788;10.366;2022-09-02T05:27:47;8.90;;;6.13;;
43606;SDS011;29197;44.788;10.366;2022-09-02T05:30:36;7.47;;;5.35;;
43606;SDS011;29197;44.788;10.366;2022-09-02T05:33:26;10.80;;;6.80;;
43606;SDS011;29197;44.788;10.366;2022-09-02T05:36:17;7.90;;;6.47;;
43606;SDS011;29197;44.788;10.366;2022-09-02T05:39:09;10.55;;;6.15;;
43606;SDS011;29197;44.788;10.366;2022-09-02T05:41:58;7.18;;;6.07;;
43606;SDS011;29197;44.788;10.366;2022-09-02T05:44:47;7.15;;;5.45;;
43606;SDS011;29197;44.788;10.366;2022-09-02T05:47:37;8.23;;;5.38;;
43606;SDS011;29197;44.788;10.366;2022-09-02T05:50:26;11.00;;;5.60;;
43606;SDS011;29197;44.788;10.366;2022-09-02T05:53:17;9.02;;;6.40;;
43606;SDS011;29197;44.788;10.366;2022-09-02T05:56:08;8.77;;;6.07;;
43606;SDS011;29197;44.788;10.366;2022-09-02T05:58:58;5.47;;;4.40;;
43606;SDS011;29197;44.788;10.366;2022-09-02T06:01:47;6.78;;;5.22;;
43606;SDS011;29197;44.788;10.366;2022-09-02T06:04:37;12.20;;;7.45;;
43606;SDS011;29197;44.788;10.366;2022-09-02T06:07:27;10.98;;;6.70;;
43606;SDS011;29197;44.788;10.366;2022-09-02T06:10:16;8.52;;;5.75;;
43606;SDS011;29197;44.788;10.366;2022-09-02T06:13:08;12.50;;;7.60;;
43606;SDS011;29197;44.788;10.366;2022-09-02T06:15:57;12.70;;;9.20;;
43606;SDS011;29197;44.788;10.366;2022-09-02T06:18:49;10.95;;;6.82;;
43606;SDS011;29197;44.788;10.366;2022-09-02T06:21:39;11.02;;;7.57;;
43606;SDS011;29197;44.788;10.366;2022-09-02T06:24:28;13.73;;;8.75;;
43606;SDS011;29197;44.788;10.366;2022-09-02T06:27:19;19.70;;;12.27;;
43606;SDS011;29197;44.788;10.366;2022-09-02T06:30:10;14.30;;;9.45;;
43606;SDS011;29197;44.788;10.366;2022-09-02T06:33:00;13.70;;;9.77;;
43606;SDS011;29197;44.788;10.366;2022-09-02T06:35:50;10.82;;;7.10;;
43606;SDS011;29197;44.788;10.366;2022-09-02T06:38:40;10.40;;;7.50;;
43606;SDS011;29197;44.788;10.366;2022-09-02T06:41:33;17.70;;;11.32;;
43606;SDS011;29197;44.788;10.366;2022-09-02T06:44:22;15.77;;;11.18;;
43606;SDS011;29197;44.788;10.366;2022-09-02T06:47:13;13.27;;;9.77;;
43606;SDS011;29197;44.788;10.366;2022-09-02T06:50:02;15.60;;;10.18;;
43606;SDS011;29197;44.788;10.366;2022-09-02T06:52:51;14.27;;;9.65;;
43606;SDS011;29197;44.788;10.366;2022-09-02T06:55:42;13.48;;;9.30;;
43606;SDS011;29197;44.788;10.366;2022-09-02T06:58:32;15.82;;;9.52;;
43606;SDS011;29197;44.788;10.366;2022-09-02T07:01:22;12.45;;;9.10;;
43606;SDS011;29197;44.788;10.366;2022-09-02T07:04:15;14.93;;;8.65;;
43606;SDS011;29197;44.788;10.366;2022-09-02T07:07:21;8.98;;;6.30;;
43606;SDS011;29197;44.788;10.366;2022-09-02T07:10:12;11.27;;;8.90;;
43606;SDS011;29197;44.788;10.366;2022-09-02T07:13:01;8.43;;;5.88;;
43606;SDS011;29197;44.788;10.366;2022-09-02T07:15:50;7.15;;;5.20;;
43606;SDS011;29197;44.788;10.366;2022-09-02T07:18:40;6.72;;;4.60;;
43606;SDS011;29197;44.788;10.366;2022-09-02T07:21:32;7.28;;;5.18;;
43606;SDS011;29197;44.788;10.366;2022-09-02T07:24:22;7.00;;;5.75;;
43606;SDS011;29197;44.788;10.366;2022-09-02T07:27:11;11.18;;;5.28;;
43606;SDS011;29197;44.788;10.366;2022-09-02T07:30:00;6.82;;;5.70;;
43606;SDS011;29197;44.788;10.366;2022-09-02T07:32:51;6.53;;;4.97;;
43606;SDS011;29197;44.788;10.366;2022-09-02T07:35:40;5.82;;;4.60;;
43606;SDS011;29197;44.788;10.366;2022-09-02T07:38:31;7.88;;;5.03;;
43606;SDS011;29197;44.788;10.366;2022-09-02T07:41:21;7.97;;;6.05;;
43606;SDS011;29197;44.788;10.366;2022-09-02T07:44:10;8.35;;;6.63;;
43606;SDS011;29197;44.788;10.366;2022-09-02T07:47:01;5.40;;;4.30;;
43606;SDS011;29197;44.788;10.366;2022-09-02T07:49:51;5.38;;;4.05;;
43606;SDS011;29197;44.788;10.366;2022-09-02T07:53:00;6.85;;;4.43;;
43606;SDS011;29197;44.788;10.366;2022-09-02T07:55:54;4.50;;;3.38;;
43606;SDS011;29197;44.788;10.366;2022-09-02T07:58:44;6.25;;;3.50;;
43606;SDS011;29197;44.788;10.366;2022-09-02T08:01:34;5.25;;;3.22;;
43606;SDS011;29197;44.788;10.366;2022-09-02T08:04:23;5.90;;;2.85;;
43606;SDS011;29197;44.788;10.366;2022-09-02T08:07:12;5.60;;;3.47;;
43606;SDS011;29197;44.788;10.366;2022-09-02T08:10:05;7.13;;;3.17;;
43606;SDS011;29197;44.788;10.366;2022-09-02T08:12:58;4.72;;;3.88;;
43606;SDS011;29197;44.788;10.366;2022-09-02T08:15:48;5.55;;;3.70;;
43606;SDS011;29197;44.788;10.366;2022-09-02T08:18:39;4.93;;;3.15;;
43606;SDS011;29197;44.788;10.366;2022-09-02T08:21:28;6.45;;;2.97;;
43606;SDS011;29197;44.788;10.366;2022-09-02T08:24:18;4.65;;;2.70;;
43606;SDS011;29197;44.788;10.366;2022-09-02T08:27:07;5.13;;;2.47;;
43606;SDS011;29197;44.788;10.366;2022-09-02T08:29:58;4.50;;;2.67;;
43606;SDS011;29197;44.788;10.366;2022-09-02T08:32:47;4.72;;;3.42;;
43606;SDS011;29197;44.788;10.366;2022-09-02T08:35:36;4.32;;;2.85;;
43606;SDS011;29197;44.788;10.366;2022-09-02T08:38:25;3.47;;;2.10;;
43606;SDS011;29197;44.788;10.366;2022-09-02T08:41:16;2.67;;;2.33;;
43606;SDS011;29197;44.788;10.366;2022-09-02T08:44:09;4.55;;;2.35;;
43606;SDS011;29197;44.788;10.366;2022-09-02T08:47:01;2.83;;;2.13;;
43606;SDS011;29197;44.788;10.366;2022-09-02T08:49:56;3.25;;;2.17;;
43606;SDS011;29197;44.788;10.366;2022-09-02T08:52:49;4.45;;;2.97;;
43606;SDS011;29197;44.788;10.366;2022-09-02T08:55:45;3.97;;;2.20;;
43606;SDS011;29197;44.788;10.366;2022-09-02T08:58:38;3.25;;;2.58;;
43606;SDS011;29197;44.788;10.366;2022-09-02T09:01:32;4.07;;;2.20;;
43606;SDS011;29197;44.788;10.366;2022-09-02T09:04:40;3.38;;;1.60;;
43606;SDS011;29197;44.788;10.366;2022-09-02T09:07:53;2.72;;;1.65;;
43606;SDS011;29197;44.788;10.366;2022-09-02T09:10:50;2.05;;;1.85;;
43606;SDS011;29197;44.788;10.366;2022-09-02T09:17:00;1.98;;;1.75;;
43606;SDS011;29197;44.788;10.366;2022-09-02T09:20:00;5.05;;;2.53;;
43606;SDS011;29197;44.788;10.366;2022-09-02T09:22:54;2.25;;;1.75;;
43606;SDS011;29197;44.788;10.366;2022-09-02T09:25:44;3.22;;;1.67;;
43606;SDS011;29197;44.788;10.366;2022-09-02T09:28:37;2.90;;;1.85;;
43606;SDS011;29197;44.788;10.366;2022-09-02T09:31:29;4.70;;;1.70;;
43606;SDS011;29197;44.788;10.366;2022-09-02T09:34:21;3.08;;;1.52;;
43606;SDS011;29197;44.788;10.366;2022-09-02T09:37:14;3.80;;;1.25;;
43606;SDS011;29197;44.788;10.366;2022-09-02T09:40:26;2.25;;;1.42;;
43606;SDS011;29197;44.788;10.366;2022-09-02T09:43:21;1.83;;;1.20;;
43606;SDS011;29197;44.788;10.366;2022-09-02T09:46:24;2.67;;;2.10;;
43606;SDS011;29197;44.788;10.366;2022-09-02T09:49:23;2.60;;;1.40;;
43606;SDS011;29197;44.788;10.366;2022-09-02T09:52:26;1.35;;;1.20;;
43606;SDS011;29197;44.788;10.366;2022-09-02T09:55:17;2.70;;;1.42;;
43606;SDS011;29197;44.788;10.366;2022-09-02T09:58:11;2.60;;;1.33;;
43606;SDS011;29197;44.788;10.366;2022-09-02T10:01:09;2.60;;;1.30;;
43606;SDS011;29197;44.788;10.366;2022-09-02T10:03:59;3.55;;;1.55;;
43606;SDS011;29197;44.788;10.366;2022-09-02T10:07:12;1.92;;;1.25;;
43606;SDS011;29197;44.788;10.366;2022-09-02T10:10:10;2.40;;;1.42;;
43606;SDS011;29197;44.788;10.366;2022-09-02T10:13:16;1.67;;;1.45;;
43606;SDS011;29197;44.788;10.366;2022-09-02T10:19:21;2.05;;;1.40;;
43606;SDS011;29197;44.788;10.366;2022-09-02T10:22:29;2.65;;;1.52;;
43606;SDS011;29197;44.788;10.366;2022-09-02T10:25:50;2.58;;;1.30;;
43606;SDS011;29197;44.788;10.366;2022-09-02T10:29:01;1.90;;;1.48;;
43606;SDS011;29197;44.788;10.366;2022-09-02T10:32:16;1.40;;;1.00;;
43606;SDS011;29197;44.788;10.366;2022-09-02T10:35:32;1.60;;;1.30;;
43606;SDS011;29197;44.788;10.366;2022-09-02T10:38:31;3.33;;;1.20;;
43606;SDS011;29197;44.788;10.366;2022-09-02T10:44:34;1.80;;;1.00;;
43606;SDS011;29197;44.788;10.366;2022-09-02T10:47:32;2.53;;;1.30;;
43606;SDS011;29197;44.788;10.366;2022-09-02T10:50:25;1.63;;;1.52;;
43606;SDS011;29197;44.788;10.366;2022-09-02T10:53:28;1.80;;;1.58;;
43606;SDS011;29197;44.788;10.366;2022-09-02T10:56:24;3.15;;;1.27;;
43606;SDS011;29197;44.788;10.366;2022-09-02T10:59:20;3.30;;;2.00;;
43606;SDS011;29197;44.788;10.366;2022-09-02T11:02:15;1.00;;;1.00;;
43606;SDS011;29197;44.788;10.366;2022-09-02T11:05:10;1.13;;;1.02;;
43606;SDS011;29197;44.788;10.366;2022-09-02T11:08:04;3.30;;;1.65;;
43606;SDS011;29197;44.788;10.366;2022-09-02T11:10:59;2.33;;;1.27;;
43606;SDS011;29197;44.788;10.366;2022-09-02T11:13:57;1.63;;;1.52;;
43606;SDS011;29197;44.788;10.366;2022-09-02T11:16:57;3.60;;;1.55;;
43606;SDS011;29197;44.788;10.366;2022-09-02T11:19:58;4.47;;;1.65;;
43606;SDS011;29197;44.788;10.366;2022-09-02T11:22:56;2.60;;;1.20;;
43606;SDS011;29197;44.788;10.366;2022-09-02T11:25:52;1.80;;;1.42;;
43606;SDS011;29197;44.788;10.366;2022-09-02T11:28:47;1.40;;;1.20;;
43606;SDS011;29197;44.788;10.366;2022-09-02T11:31:45;0.95;;;0.90;;
43606;SDS011;29197;44.788;10.366;2022-09-02T11:34:42;3.03;;;1.05;;
43606;SDS011;29197;44.788;10.366;2022-09-02T11:37:37;1.65;;;1.23;;
43606;SDS011;29197;44.788;10.366;2022-09-02T11:40:30;1.52;;;1.05;;
43606;SDS011;29197;44.788;10.366;2022-09-02T11:43:26;2.40;;;1.20;;
43606;SDS011;29197;44.788;10.366;2022-09-02T11:49:41;1.58;;;1.00;;
43606;SDS011;29197;44.788;10.366;2022-09-02T11:56:00;2.85;;;1.35;;
43606;SDS011;29197;44.788;10.366;2022-09-02T11:58:53;1.58;;;0.93;;
43606;SDS011;29197;44.788;10.366;2022-09-02T12:01:46;1.48;;;1.23;;
43606;SDS011;29197;44.788;10.366;2022-09-02T12:04:38;1.80;;;1.25;;
43606;SDS011;29197;44.788;10.366;2022-09-02T12:07:48;1.65;;;1.40;;
43606;SDS011;29197;44.788;10.366;2022-09-02T12:10:57;2.40;;;1.65;;
43606;SDS011;29197;44.788;10.366;2022-09-02T12:13:50;0.90;;;0.90;;
43606;SDS011;29197;44.788;10.366;2022-09-02T12:16:40;2.15;;;0.82;;
43606;SDS011;29197;44.788;10.366;2022-09-02T12:22:38;2.58;;;1.23;;
43606;SDS011;29197;44.788;10.366;2022-09-02T12:25:42;1.88;;;1.00;;
43606;SDS011;29197;44.788;10.366;2022-09-02T12:28:35;3.83;;;1.20;;
43606;SDS011;29197;44.788;10.366;2022-09-02T12:31:39;1.33;;;1.00;;
43606;SDS011;29197;44.788;10.366;2022-09-02T12:37:53;3.95;;;0.90;;
43606;SDS011;29197;44.788;10.366;2022-09-02T12:40:51;3.85;;;1.00;;
43606;SDS011;29197;44.788;10.366;2022-09-02T12:43:47;1.77;;;0.73;;
43606;SDS011;29197;44.788;10.366;2022-09-02T12:46:51;1.88;;;1.20;;
43606;SDS011;29197;44.788;10.366;2022-09-02T12:49:48;2.22;;;1.10;;
43606;SDS011;29197;44.788;10.366;2022-09-02T12:52:45;0.98;;;0.80;;
43606;SDS011;29197;44.788;10.366;2022-09-02T12:55:35;3.95;;;1.40;;
43606;SDS011;29197;44.788;10.366;2022-09-02T12:58:30;1.20;;;0.98;;
43606;SDS011;29197;44.788;10.366;2022-09-02T13:01:23;3.05;;;1.17;;
43606;SDS011;29197;44.788;10.366;2022-09-02T13:04:26;0.95;;;0.80;;
43606;SDS011;29197;44.788;10.366;2022-09-02T13:10:55;1.23;;;0.80;;
43606;SDS011;29197;44.788;10.366;2022-09-02T13:14:19;4.28;;;1.40;;
43606;SDS011;29197;44.788;10.366;2022-09-02T13:17:20;1.45;;;0.90;;
43606;SDS011;29197;44.788;10.366;2022-09-02T13:23:55;1.65;;;1.20;;
43606;SDS011;29197;44.788;10.366;2022-09-02T13:27:12;1.65;;;0.95;;
43606;SDS011;29197;44.788;10.366;2022-09-02T13:30:20;3.33;;;1.20;;
43606;SDS011;29197;44.788;10.366;2022-09-02T13:33:16;0.98;;;0.88;;
43606;SDS011;29197;44.788;10.366;2022-09-02T13:36:05;1.10;;;0.88;;
43606;SDS011;29197;44.788;10.366;2022-09-02T13:38:55;1.13;;;0.90;;
43606;SDS011;29197;44.788;10.366;2022-09-02T13:41:58;1.20;;;0.80;;
43606;SDS011;29197;44.788;10.366;2022-09-02T13:45:10;1.48;;;0.98;;
43606;SDS011;29197;44.788;10.366;2022-09-02T13:48:05;1.80;;;1.17;;
43606;SDS011;29197;44.788;10.366;2022-09-02T13:50:58;1.10;;;1.00;;
43606;SDS011;29197;44.788;10.366;2022-09-02T13:53:49;1.08;;;0.98;;
43606;SDS011;29197;44.788;10.366;2022-09-02T13:57:00;1.13;;;0.82;;
43606;SDS011;29197;44.788;10.366;2022-09-02T13:59:53;1.48;;;0.82;;
43606;SDS011;29197;44.788;10.366;2022-09-02T14:02:53;1.02;;;0.90;;
43606;SDS011;29197;44.788;10.366;2022-09-02T14:05:48;1.58;;;1.30;;
43606;SDS011;29197;44.788;10.366;2022-09-02T14:08:39;2.90;;;1.15;;
43606;SDS011;29197;44.788;10.366;2022-09-02T14:11:28;2.83;;;0.88;;
43606;SDS011;29197;44.788;10.366;2022-09-02T14:14:25;3.55;;;1.30;;
43606;SDS011;29197;44.788;10.366;2022-09-02T14:17:19;1.52;;;0.90;;
43606;SDS011;29197;44.788;10.366;2022-09-02T14:20:19;1.20;;;1.10;;
43606;SDS011;29197;44.788;10.366;2022-09-02T14:23:12;0.88;;;0.88;;
43606;SDS011;29197;44.788;10.366;2022-09-02T14:26:04;2.08;;;1.00;;
43606;SDS011;29197;44.788;10.366;2022-09-02T14:28:54;2.63;;;1.27;;
43606;SDS011;29197;44.788;10.366;2022-09-02T14:31:43;1.65;;;1.10;;
43606;SDS011;29197;44.788;10.366;2022-09-02T14:34:33;1.40;;;0.90;;
43606;SDS011;29197;44.788;10.366;2022-09-02T14:37:24;1.33;;;1.13;;
43606;SDS011;29197;44.788;10.366;2022-09-02T14:40:17;1.08;;;0.98;;
43606;SDS011;29197;44.788;10.366;2022-09-02T14:43:19;1.88;;;1.27;;
43606;SDS011;29197;44.788;10.366;2022-09-02T14:46:13;1.33;;;0.70;;
43606;SDS011;29197;44.788;10.366;2022-09-02T14:49:17;0.70;;;0.70;;
43606;SDS011;29197;44.788;10.366;2022-09-02T14:52:10;1.13;;;1.05;;
43606;SDS011;29197;44.788;10.366;2022-09-02T14:55:05;1.23;;;0.90;;
43606;SDS011;29197;44.788;10.366;2022-09-02T14:58:05;2.75;;;1.00;;
43606;SDS011;29197;44.788;10.366;2022-09-02T15:00:57;2.17;;;1.38;;
43606;SDS011;29197;44.788;10.366;2022-09-02T15:03:48;1.83;;;1.30;;
43606;SDS011;29197;44.788;10.366;2022-09-02T15:06:37;1.17;;;1.00;;
43606;SDS011;29197;44.788;10.366;2022-09-02T15:09:26;1.33;;;0.98;;
43606;SDS011;29197;44.788;10.366;2022-09-02T15:12:15;1.17;;;1.05;;
43606;SDS011;29197;44.788;10.366;2022-09-02T15:15:12;1.13;;;1.02;;
43606;SDS011;29197;44.788;10.366;2022-09-02T15:18:01;1.38;;;0.93;;
43606;SDS011;29197;44.788;10.366;2022-09-02T15:20:54;2.20;;;1.30;;
43606;SDS011;29197;44.788;10.366;2022-09-02T15:23:43;1.02;;;0.85;;
43606;SDS011;29197;44.788;10.366;2022-09-02T15:26:36;2.85;;;1.48;;
43606;SDS011;29197;44.788;10.366;2022-09-02T15:29:26;0.80;;;0.80;;
43606;SDS011;29197;44.788;10.366;2022-09-02T15:32:17;2.20;;;1.10;;
43606;SDS011;29197;44.788;10.366;2022-09-02T15:35:07;1.70;;;1.15;;
43606;SDS011;29197;44.788;10.366;2022-09-02T15:37:56;2.75;;;0.85;;
43606;SDS011;29197;44.788;10.366;2022-09-02T15:40:46;1.45;;;0.77;;
43606;SDS011;29197;44.788;10.366;2022-09-02T15:43:35;1.40;;;1.02;;
43606;SDS011;29197;44.788;10.366;2022-09-02T15:46:25;3.60;;;1.23;;
43606;SDS011;29197;44.788;10.366;2022-09-02T15:49:17;3.47;;;1.67;;
43606;SDS011;29197;44.788;10.366;2022-09-02T15:52:07;1.35;;;1.00;;
43606;SDS011;29197;44.788;10.366;2022-09-02T15:54:57;2.50;;;1.20;;
43606;SDS011;29197;44.788;10.366;2022-09-02T15:57:46;2.28;;;1.30;;
43606;SDS011;29197;44.788;10.366;2022-09-02T16:00:35;2.63;;;1.52;;
43606;SDS011;29197;44.788;10.366;2022-09-02T16:03:29;2.22;;;1.27;;
43606;SDS011;29197;44.788;10.366;2022-09-02T16:06:20;1.67;;;1.40;;
43606;SDS011;29197;44.788;10.366;2022-09-02T16:09:10;1.95;;;1.20;;
43606;SDS011;29197;44.788;10.366;2022-09-02T16:12:02;2.72;;;1.30;;
43606;SDS011;29197;44.788;10.366;2022-09-02T16:14:52;1.20;;;0.98;;
43606;SDS011;29197;44.788;10.366;2022-09-02T16:17:41;4.20;;;1.48;;
43606;SDS011;29197;44.788;10.366;2022-09-02T16:20:31;1.77;;;1.10;;
43606;SDS011;29197;44.788;10.366;2022-09-02T16:23:22;1.80;;;1.50;;
43606;SDS011;29197;44.788;10.366;2022-09-02T16:26:12;1.05;;;0.98;;
43606;SDS011;29197;44.788;10.366;2022-09-02T16:29:03;1.17;;;1.08;;
43606;SDS011;29197;44.788;10.366;2022-09-02T16:31:54;2.10;;;1.40;;
43606;SDS011;29197;44.788;10.366;2022-09-02T16:35:04;2.72;;;1.25;;
43606;SDS011;29197;44.788;10.366;2022-09-02T16:37:54;3.20;;;1.35;;
43606;SDS011;29197;44.788;10.366;2022-09-02T16:40:49;3.08;;;1.15;;
43606;SDS011;29197;44.788;10.366;2022-09-02T16:43:38;2.25;;;0.80;;
43606;SDS011;29197;44.788;10.366;2022-09-02T16:46:28;1.77;;;1.23;;
43606;SDS011;29197;44.788;10.366;2022-09-02T16:49:18;2.28;;;1.25;;
43606;SDS011;29197;44.788;10.366;2022-09-02T16:52:10;1.67;;;1.23;;
43606;SDS011;29197;44.788;10.366;2022-09-02T16:54:59;2.03;;;1.50;;
43606;SDS011;29197;44.788;10.366;2022-09-02T16:57:50;1.60;;;1.17;;
43606;SDS011;29197;44.788;10.366;2022-09-02T17:00:41;3.25;;;1.30;;
43606;SDS011;29197;44.788;10.366;2022-09-02T17:03:30;1.05;;;1.00;;
43606;SDS011;29197;44.788;10.366;2022-09-02T17:06:20;1.50;;;1.40;;
43606;SDS011;29197;44.788;10.366;2022-09-02T17:09:09;1.90;;;1.75;;
43606;SDS011;29197;44.788;10.366;2022-09-02T17:11:59;5.25;;;1.58;;
43606;SDS011;29197;44.788;10.366;2022-09-02T17:14:49;1.45;;;1.35;;
43606;SDS011;29197;44.788;10.366;2022-09-02T17:17:39;1.33;;;1.20;;
43606;SDS011;29197;44.788;10.366;2022-09-02T17:20:28;1.40;;;1.30;;
43606;SDS011;29197;44.788;10.366;2022-09-02T17:23:18;2.92;;;1.25;;
43606;SDS011;29197;44.788;10.366;2022-09-02T17:26:07;1.85;;;1.10;;
43606;SDS011;29197;44.788;10.366;2022-09-02T17:28:57;2.08;;;1.35;;
43606;SDS011;29197;44.788;10.366;2022-09-02T17:31:47;1.60;;;1.20;;
43606;SDS011;29197;44.788;10.366;2022-09-02T17:34:36;3.53;;;1.52;;